createdAt,value
2023-01-07T00:00:36.326Z,100377.06
2023-01-07T00:01:40.873Z,100402.75
2023-01-07T00:02:42.578Z,100402.06
2023-01-07T00:03:46.197Z,100401.00
2023-01-07T00:04:48.198Z,100396.78
2023-01-07T00:05:49.897Z,100383.94
2023-01-07T00:06:52.996Z,100393.44
2023-01-07T00:07:54.935Z,100403.75
2023-01-07T00:08:58.500Z,100402.88
2023-01-07T00:10:00.465Z,100402.91
2023-01-07T00:11:06.465Z,100390.84
2023-01-07T00:12:08.196Z,100377.31
2023-01-07T00:13:09.840Z,100403.00
2023-01-07T00:14:13.990Z,100386.69
2023-01-07T00:15:15.749Z,100398.00
2023-01-07T00:16:21.953Z,100396.22
2023-01-07T00:17:23.680Z,100392.13
2023-01-07T00:18:26.794Z,100387.84
2023-01-07T00:19:28.654Z,100412.75
2023-01-07T00:20:30.697Z,100357.78
2023-01-07T00:21:33.231Z,100397.94
2023-01-07T00:22:34.951Z,100401.38
2023-01-07T00:23:38.759Z,100397.94
2023-01-07T00:24:40.291Z,100380.00
2023-01-07T00:25:42.466Z,100398.91
2023-01-07T00:26:44.465Z,100400.72
2023-01-07T00:27:46.501Z,100385.28
2023-01-07T00:28:50.363Z,100390.47
2023-01-07T00:29:52.089Z,100405.13
2023-01-07T00:31:00.335Z,100395.63
2023-01-07T00:32:02.387Z,100396.41
2023-01-07T00:33:06.175Z,100392.84
2023-01-07T00:34:09.637Z,100382.63
2023-01-07T00:35:23.348Z,100390.31
2023-01-07T00:36:28.921Z,100396.47
2023-01-07T00:37:49.295Z,100370.84
2023-01-07T00:38:56.052Z,100386.13
2023-01-07T00:39:58.255Z,100391.34
2023-01-07T00:41:00.336Z,100375.00
2023-01-07T00:42:20.582Z,100386.31
2023-01-07T00:43:23.217Z,100394.97
2023-01-07T00:44:24.885Z,100380.38
2023-01-07T00:45:26.968Z,100370.84
2023-01-07T00:46:29.730Z,100370.13
2023-01-07T00:47:31.468Z,100373.53
2023-01-07T00:48:35.978Z,100357.28
2023-01-07T00:49:38.189Z,100386.41
2023-01-07T00:50:40.346Z,100389.88
2023-01-07T00:51:42.384Z,100384.69
2023-01-07T00:52:46.883Z,100371.78
2023-01-07T00:53:49.537Z,100379.56
2023-01-07T00:54:51.522Z,100374.41
2023-01-07T00:55:53.414Z,100345.31
2023-01-07T00:56:55.161Z,100370.91
2023-01-07T00:57:57.834Z,100357.28
2023-01-07T00:58:59.771Z,100366.59
2023-01-07T01:00:01.634Z,100368.38
2023-01-07T01:01:03.761Z,100360.75
2023-01-07T01:02:05.617Z,100365.88
2023-01-07T01:03:08.560Z,100365.84
2023-01-07T01:04:10.399Z,100348.81
2023-01-07T01:05:13.255Z,100369.47
2023-01-07T01:06:16.393Z,100375.59
2023-01-07T01:07:18.223Z,100372.06
2023-01-07T01:08:21.555Z,100353.19
2023-01-07T01:09:25.674Z,100363.34
2023-01-07T01:10:28.642Z,100365.88
2023-01-07T01:11:30.476Z,100348.69
2023-01-07T01:12:32.523Z,100345.38
2023-01-07T01:13:35.401Z,100352.28
2023-01-07T01:14:38.651Z,100348.00
2023-01-07T01:15:45.324Z,100357.59
2023-01-07T01:16:47.286Z,100355.81
2023-01-07T01:17:51.084Z,100360.09
2023-01-07T01:18:53.304Z,100366.31
2023-01-07T01:19:55.223Z,100349.72
2023-01-07T01:20:57.219Z,100352.50
2023-01-07T01:21:58.877Z,100344.84
2023-01-07T01:23:01.909Z,100361.97
2023-01-07T01:24:03.653Z,100355.94
2023-01-07T01:25:05.615Z,100362.03
2023-01-07T01:26:13.847Z,100358.56
2023-01-07T01:27:15.874Z,100363.84
2023-01-07T01:28:20.818Z,100362.03
2023-01-07T01:29:22.443Z,100345.84
2023-01-07T01:30:24.411Z,100350.88
2023-01-07T01:31:26.573Z,100340.66
2023-01-07T01:32:30.065Z,100352.72
2023-01-07T01:33:31.699Z,100371.72
2023-01-07T01:34:33.470Z,100359.63
2023-01-07T01:35:40.213Z,100366.59
2023-01-07T01:36:42.378Z,100351.81
2023-01-07T01:37:44.143Z,100340.81
2023-01-07T01:38:47.041Z,100344.16
2023-01-07T01:39:48.756Z,100363.09
2023-01-07T01:40:50.655Z,100361.38
2023-01-07T01:41:52.540Z,100341.75
2023-01-07T01:42:55.421Z,100355.53
2023-01-07T01:43:58.412Z,100352.00
2023-01-07T01:45:03.172Z,100356.28
2023-01-07T01:46:20.343Z,100360.63
2023-01-07T01:47:35.166Z,100361.56
2023-01-07T01:48:42.564Z,100331.66
2023-01-07T01:49:50.829Z,100353.78
2023-01-07T01:50:53.455Z,100339.28
2023-01-07T01:52:05.812Z,100352.06
2023-01-07T01:53:13.877Z,100349.47
2023-01-07T01:54:17.814Z,100347.03
2023-01-07T01:55:27.908Z,100358.94
2023-01-07T01:56:36.076Z,100351.94
2023-01-07T01:57:41.778Z,100337.34
2023-01-07T01:58:49.317Z,100342.56
2023-01-07T01:59:52.653Z,100347.59
2023-01-07T02:00:55.420Z,100350.31
2023-01-07T02:01:57.625Z,100336.53
2023-01-07T02:03:00.179Z,100333.91
2023-01-07T02:04:07.778Z,100358.97
2023-01-07T02:05:09.858Z,100337.41
2023-01-07T02:06:21.456Z,100344.03
2023-01-07T02:07:23.714Z,100328.84
2023-01-07T02:08:27.112Z,100328.72
2023-01-07T02:09:29.127Z,100327.84
2023-01-07T02:10:34.082Z,100335.59
2023-01-07T02:12:08.737Z,100342.47
2023-01-07T02:13:28.170Z,100337.28
2023-01-07T02:14:58.313Z,100333.00
2023-01-07T02:16:26.279Z,100332.13
2023-01-07T02:17:33.635Z,100333.81
2023-01-07T02:19:03.491Z,100330.31
2023-01-07T02:20:19.929Z,100318.94
2023-01-07T02:21:57.816Z,100319.00
2023-01-07T02:23:11.961Z,100323.34
2023-01-07T02:24:21.678Z,100325.91
2023-01-07T02:25:44.955Z,100328.50
2023-01-07T02:27:14.219Z,100316.38
2023-01-07T02:28:47.262Z,100325.91
2023-01-07T02:30:26.410Z,100323.34
2023-01-07T02:31:46.808Z,100317.22
2023-01-07T02:33:13.133Z,100312.84
2023-01-07T02:34:27.409Z,100299.06
2023-01-07T02:35:39.558Z,100288.75
2023-01-07T02:36:55.607Z,100308.34
2023-01-07T02:38:10.029Z,100303.88
2023-01-07T02:39:49.338Z,100303.88
2023-01-07T02:41:04.732Z,100289.38
2023-01-07T02:42:40.059Z,100304.59
2023-01-07T02:44:03.776Z,100297.56
2023-01-07T02:45:31.584Z,100302.59
2023-01-07T02:46:47.404Z,100281.75
2023-01-07T02:48:02.916Z,100301.44
2023-01-07T02:49:09.517Z,100290.03
2023-01-07T02:50:11.142Z,100282.34
2023-01-07T02:51:13.114Z,100283.66
2023-01-07T02:52:17.815Z,100281.84
2023-01-07T02:53:23.173Z,100283.56
2023-01-07T02:54:29.102Z,100281.75
2023-01-07T02:55:48.033Z,100269.78
2023-01-07T02:56:52.202Z,100275.63
2023-01-07T02:58:33.523Z,100273.81
2023-01-07T02:59:37.758Z,100276.41
2023-01-07T03:01:15.257Z,100274.72
2023-01-07T03:02:41.617Z,100270.53
2023-01-07T03:04:01.737Z,100265.47
2023-01-07T03:05:16.698Z,100276.81
2023-01-07T03:06:29.648Z,100271.59
2023-01-07T03:07:49.898Z,100273.44
2023-01-07T03:09:10.575Z,100267.50
2023-01-07T03:10:26.547Z,100258.88
2023-01-07T03:11:41.805Z,100267.41
2023-01-07T03:12:48.126Z,100264.72
2023-01-07T03:14:18.648Z,100263.84
2023-01-07T03:15:29.138Z,100276.13
2023-01-07T03:16:40.324Z,100261.25
2023-01-07T03:17:49.778Z,100267.28
2023-01-07T03:19:08.470Z,100266.38
2023-01-07T03:20:13.663Z,100239.94
2023-01-07T03:21:17.969Z,100263.78
2023-01-07T03:22:23.659Z,100263.78
2023-01-07T03:23:29.317Z,100236.16
2023-01-07T03:24:32.978Z,100239.69
2023-01-07T03:25:39.607Z,100243.19
2023-01-07T03:26:46.455Z,100264.56
2023-01-07T03:27:53.319Z,100248.09
2023-01-07T03:28:59.644Z,100251.38
2023-01-07T03:30:05.011Z,100226.59
2023-01-07T03:31:10.454Z,100249.50
2023-01-07T03:32:16.423Z,100248.69
2023-01-07T03:33:23.338Z,100243.75
2023-01-07T03:34:28.570Z,100255.78
2023-01-07T03:35:35.436Z,100253.19
2023-01-07T03:36:41.376Z,100245.66
2023-01-07T03:37:43.245Z,100252.50
2023-01-07T03:38:50.064Z,100249.94
2023-01-07T03:39:53.219Z,100246.44
2023-01-07T03:40:55.585Z,100235.59
2023-01-07T03:42:16.367Z,100210.56
2023-01-07T03:43:20.538Z,100250.88
2023-01-07T03:44:22.698Z,100237.84
2023-01-07T03:45:27.163Z,100232.88
2023-01-07T03:46:29.521Z,100207.16
2023-01-07T03:47:31.275Z,100240.66
2023-01-07T03:48:33.252Z,100213.09
2023-01-07T03:49:37.056Z,100245.00
2023-01-07T03:50:38.804Z,100235.50
2023-01-07T03:51:40.424Z,100231.38
2023-01-07T03:52:42.175Z,100232.31
2023-01-07T03:53:43.822Z,100225.28
2023-01-07T03:54:46.733Z,100236.53
2023-01-07T03:55:48.421Z,100233.91
2023-01-07T03:56:50.570Z,100219.41
2023-01-07T03:57:52.241Z,100231.34
2023-01-07T03:58:53.969Z,100226.22
2023-01-07T03:59:55.637Z,100215.25
2023-01-07T04:00:57.504Z,100221.19
2023-01-07T04:02:00.358Z,100203.97
2023-01-07T04:03:02.210Z,100228.06
2023-01-07T04:04:04.217Z,100227.38
2023-01-07T04:05:06.684Z,100216.16
2023-01-07T04:06:08.641Z,100230.66
2023-01-07T04:07:10.221Z,100213.53
2023-01-07T04:08:11.826Z,100224.69
2023-01-07T04:09:16.131Z,100218.44
2023-01-07T04:10:18.252Z,100214.25
2023-01-07T04:11:19.962Z,100226.41
2023-01-07T04:12:22.004Z,100215.88
2023-01-07T04:13:24.565Z,100227.22
2023-01-07T04:14:26.163Z,100211.78
2023-01-07T04:15:27.938Z,100202.34
2023-01-07T04:16:30.528Z,100217.81
2023-01-07T04:17:32.149Z,100201.44
2023-01-07T04:18:36.967Z,100221.28
2023-01-07T04:19:40.984Z,100217.72
2023-01-07T04:20:49.076Z,100212.53
2023-01-07T04:21:51.517Z,100203.16
2023-01-07T04:22:53.103Z,100190.81
2023-01-07T04:23:54.792Z,100201.78
2023-01-07T04:24:56.518Z,100197.56
2023-01-07T04:25:58.195Z,100202.78
2023-01-07T04:26:59.728Z,100188.38
2023-01-07T04:28:01.782Z,100201.16
2023-01-07T04:29:03.747Z,100202.97
2023-01-07T04:30:06.252Z,100166.13
2023-01-07T04:31:08.324Z,100196.19
2023-01-07T04:32:09.998Z,100193.66
2023-01-07T04:33:11.963Z,100182.72
2023-01-07T04:34:14.668Z,100184.38
2023-01-07T04:35:16.398Z,100186.78
2023-01-07T04:36:18.363Z,100185.84
2023-01-07T04:37:20.345Z,100167.78
2023-01-07T04:38:22.221Z,100176.28
2023-01-07T04:39:24.021Z,100176.28
2023-01-07T04:40:26.241Z,100170.91
2023-01-07T04:41:28.337Z,100176.06
2023-01-07T04:42:30.235Z,100174.31
2023-01-07T04:43:32.216Z,100179.63
2023-01-07T04:44:33.818Z,100171.06
2023-01-07T04:45:35.676Z,100188.38
2023-01-07T04:46:37.645Z,100174.59
2023-01-07T04:47:39.564Z,100181.56
2023-01-07T04:48:42.485Z,100162.78
2023-01-07T04:49:44.170Z,100167.78
2023-01-07T04:50:48.484Z,100170.25
2023-01-07T04:51:50.063Z,100157.38
2023-01-07T04:52:51.821Z,100162.56
2023-01-07T04:53:53.622Z,100157.66
2023-01-07T04:54:55.493Z,100165.19
2023-01-07T04:55:57.142Z,100165.19
2023-01-07T04:56:59.388Z,100159.09
2023-01-07T04:58:01.319Z,100172.16
2023-01-07T04:59:03.315Z,100156.56
2023-01-07T05:00:06.842Z,100161.84
2023-01-07T05:01:08.981Z,100154.97
2023-01-07T05:02:10.864Z,100162.66
2023-01-07T05:03:13.475Z,100165.28
2023-01-07T05:04:15.267Z,100161.78
2023-01-07T05:05:19.120Z,100155.69
2023-01-07T05:06:20.717Z,100145.56
2023-01-07T05:07:22.410Z,100160.91
2023-01-07T05:08:23.939Z,100145.53
2023-01-07T05:09:25.634Z,100158.38
2023-01-07T05:10:27.339Z,100155.03
2023-01-07T05:11:29.139Z,100157.56
2023-01-07T05:12:38.066Z,100150.69
2023-01-07T05:13:40.166Z,100135.25
2023-01-07T05:14:42.071Z,100130.00
2023-01-07T05:15:44.306Z,100138.53
2023-01-07T05:16:46.164Z,100149.44
2023-01-07T05:17:48.200Z,100134.69
2023-01-07T05:18:50.133Z,100121.78
2023-01-07T05:19:52.395Z,100144.81
2023-01-07T05:20:54.320Z,100137.78
2023-01-07T05:21:56.289Z,100144.72
2023-01-07T05:22:58.251Z,100127.56
2023-01-07T05:24:00.500Z,100142.94
2023-01-07T05:25:02.015Z,100133.41
2023-01-07T05:26:04.554Z,100123.06
2023-01-07T05:27:06.347Z,100142.69
2023-01-07T05:28:08.124Z,100130.66
2023-01-07T05:29:10.259Z,100128.19
2023-01-07T05:30:13.410Z,100125.16
2023-01-07T05:31:15.635Z,100137.16
2023-01-07T05:32:17.623Z,100132.03
2023-01-07T05:33:19.345Z,100138.03
2023-01-07T05:34:21.366Z,100140.66
2023-01-07T05:35:24.290Z,100113.31
2023-01-07T05:36:25.935Z,100137.25
2023-01-07T05:37:27.797Z,100138.97
2023-01-07T05:38:29.552Z,100134.84
2023-01-07T05:39:32.346Z,100133.69
2023-01-07T05:40:34.422Z,100127.59
2023-01-07T05:41:36.129Z,100144.19
2023-01-07T05:42:38.015Z,100140.72
2023-01-07T05:43:39.653Z,100119.25
2023-01-07T05:44:42.531Z,100117.53
2023-01-07T05:45:45.749Z,100127.97
2023-01-07T05:46:47.524Z,100128.63
2023-01-07T05:47:49.917Z,100130.34
2023-01-07T05:48:51.683Z,100120.16
2023-01-07T05:49:58.414Z,100127.75
2023-01-07T05:51:00.323Z,100109.00
2023-01-07T05:52:01.900Z,100123.47
2023-01-07T05:53:03.576Z,100123.47
2023-01-07T05:54:05.596Z,100109.84
2023-01-07T05:55:08.708Z,100125.22
2023-01-07T05:56:11.140Z,100123.63
2023-01-07T05:57:12.942Z,100116.69
2023-01-07T05:58:16.098Z,100119.94
2023-01-07T05:59:17.854Z,100101.94
2023-01-07T06:00:19.631Z,100114.13
2023-01-07T06:01:23.283Z,100097.69
2023-01-07T06:02:25.119Z,100112.22
2023-01-07T06:03:26.901Z,100107.84
2023-01-07T06:04:28.793Z,100120.06
2023-01-07T06:05:31.006Z,100108.81
2023-01-07T06:06:32.613Z,100108.81
2023-01-07T06:07:34.519Z,100091.75
2023-01-07T06:08:37.282Z,100107.00
2023-01-07T06:09:39.316Z,100100.22
2023-01-07T06:10:41.770Z,100082.16
2023-01-07T06:11:43.821Z,100102.59
2023-01-07T06:12:45.775Z,100100.94
2023-01-07T06:13:47.729Z,100099.19
2023-01-07T06:14:49.918Z,100088.81
2023-01-07T06:15:51.806Z,100088.81
2023-01-07T06:16:54.219Z,100092.16
2023-01-07T06:17:56.569Z,100105.91
2023-01-07T06:18:58.482Z,100089.69
2023-01-07T06:20:02.918Z,100106.78
2023-01-07T06:21:04.878Z,100075.22
2023-01-07T06:22:06.713Z,100099.84
2023-01-07T06:23:10.700Z,100106.78
2023-01-07T06:24:13.031Z,100094.75
2023-01-07T06:25:14.824Z,100101.63
2023-01-07T06:26:16.573Z,100095.75
2023-01-07T06:27:18.277Z,100074.34
2023-01-07T06:28:20.467Z,100097.22
2023-01-07T06:29:22.065Z,100078.31
2023-01-07T06:30:24.219Z,100103.22
2023-01-07T06:31:26.098Z,100079.09
2023-01-07T06:32:28.161Z,100105.63
2023-01-07T06:33:33.336Z,100065.19
2023-01-07T06:34:35.245Z,100093.38
2023-01-07T06:35:37.384Z,100072.91
2023-01-07T06:36:39.267Z,100081.38
2023-01-07T06:37:41.327Z,100098.56
2023-01-07T06:38:44.150Z,100068.66
2023-01-07T06:39:45.943Z,100100.47
2023-01-07T06:40:48.191Z,100068.53
2023-01-07T06:41:50.342Z,100081.47
2023-01-07T06:42:51.901Z,100086.53
2023-01-07T06:43:53.777Z,100069.81
2023-01-07T06:44:55.888Z,100076.31
2023-01-07T06:45:57.657Z,100073.72
2023-01-07T06:46:59.458Z,100067.72
2023-01-07T06:48:01.275Z,100091.75
2023-01-07T06:49:03.632Z,100087.34
2023-01-07T06:50:05.660Z,100081.53
2023-01-07T06:51:07.657Z,100080.47
2023-01-07T06:52:09.642Z,100066.03
2023-01-07T06:53:11.576Z,100074.66
2023-01-07T06:54:15.166Z,100080.47
2023-01-07T06:55:16.929Z,100082.19
2023-01-07T06:56:18.721Z,100077.81
2023-01-07T06:57:20.990Z,100076.06
2023-01-07T06:58:24.344Z,100077.81
2023-01-07T06:59:26.215Z,100062.31
2023-01-07T07:00:29.237Z,100059.81
2023-01-07T07:01:31.551Z,100057.19
2023-01-07T07:02:34.950Z,100059.56
2023-01-07T07:03:37.313Z,100071.41
2023-01-07T07:04:38.968Z,100109.72
2023-01-07T07:05:41.750Z,100066.59
2023-01-07T07:06:45.339Z,100052.97
2023-01-07T07:07:47.997Z,100075.47
2023-01-07T07:08:49.616Z,100065.78
2023-01-07T07:09:52.928Z,100071.00
2023-01-07T07:10:54.629Z,100058.06
2023-01-07T07:11:56.490Z,100054.66
2023-01-07T07:12:58.282Z,100057.44
2023-01-07T07:14:00.088Z,100046.19
2023-01-07T07:15:03.170Z,100069.19
2023-01-07T07:16:05.168Z,100051.53
2023-01-07T07:17:09.309Z,100062.56
2023-01-07T07:18:12.034Z,100050.53
2023-01-07T07:19:13.960Z,100080.59
2023-01-07T07:20:16.301Z,100070.09
2023-01-07T07:21:19.278Z,100067.47
2023-01-07T07:22:21.888Z,100054.66
2023-01-07T07:23:24.103Z,100069.50
2023-01-07T07:24:25.695Z,100037.50
2023-01-07T07:25:29.134Z,100051.16
2023-01-07T07:26:30.992Z,100050.41
2023-01-07T07:27:32.738Z,100032.50
2023-01-07T07:28:34.602Z,100061.34
2023-01-07T07:29:36.200Z,100051.31
2023-01-07T07:30:45.735Z,100061.38
2023-01-07T07:31:49.703Z,100057.03
2023-01-07T07:32:51.230Z,100044.34
2023-01-07T07:33:53.086Z,100039.16
2023-01-07T07:35:01.024Z,100061.38
2023-01-07T07:36:02.842Z,100068.34
2023-01-07T07:37:06.073Z,100061.38
2023-01-07T07:38:08.691Z,100043.41
2023-01-07T07:39:11.962Z,100044.34
2023-01-07T07:40:13.677Z,100045.25
2023-01-07T07:41:15.441Z,100049.41
2023-01-07T07:42:17.132Z,100032.50
2023-01-07T07:43:19.728Z,100047.75
2023-01-07T07:44:21.325Z,100058.06
2023-01-07T07:45:24.609Z,100062.25
2023-01-07T07:46:26.278Z,100029.69
2023-01-07T07:47:29.085Z,100060.50
2023-01-07T07:48:31.468Z,100059.63
2023-01-07T07:49:33.149Z,100055.22
2023-01-07T07:50:35.933Z,100052.50
2023-01-07T07:51:37.768Z,100053.25
2023-01-07T07:52:39.387Z,100029.38
2023-01-07T07:53:41.025Z,100046.50
2023-01-07T07:54:42.682Z,100057.66
2023-01-07T07:55:47.353Z,100029.25
2023-01-07T07:56:49.047Z,100026.88
2023-01-07T07:57:53.824Z,100042.06
2023-01-07T07:58:55.591Z,100043.72
2023-01-07T07:59:57.520Z,100008.47
2023-01-07T08:00:59.141Z,100028.91
2023-01-07T08:02:01.224Z,100010.34
2023-01-07T08:03:03.152Z,100034.16
2023-01-07T08:04:05.292Z,100016.47
2023-01-07T08:05:07.929Z,100009.47
2023-01-07T08:06:11.722Z,100024.00
2023-01-07T08:07:13.544Z,100041.31
2023-01-07T08:08:35.302Z,100023.78
2023-01-07T08:09:37.269Z,100020.31
2023-01-07T08:10:39.859Z,100021.25
2023-01-07T08:11:41.761Z,100034.97
2023-01-07T08:12:44.864Z,100021.34
2023-01-07T08:13:46.809Z,100008.22
2023-01-07T08:14:48.751Z,100003.97
2023-01-07T08:15:51.914Z,100017.47
2023-01-07T08:16:53.851Z,100000.44
2023-01-07T08:18:01.129Z,99996.25
2023-01-07T08:19:03.153Z,100000.34
2023-01-07T08:20:06.425Z,100021.81
2023-01-07T08:21:09.528Z,99998.63
2023-01-07T08:22:11.416Z,100008.66
2023-01-07T08:23:13.230Z,100003.63
2023-01-07T08:24:15.728Z,100000.13
2023-01-07T08:25:20.423Z,99992.28
2023-01-07T08:26:22.519Z,99993.09
2023-01-07T08:27:24.668Z,99984.69
2023-01-07T08:28:26.508Z,99995.38
2023-01-07T08:29:28.384Z,99996.28
2023-01-07T08:30:30.906Z,100004.00
2023-01-07T08:31:33.151Z,99988.56
2023-01-07T08:32:35.139Z,100002.94
2023-01-07T08:33:40.028Z,100010.69
2023-01-07T08:34:41.986Z,99983.34
2023-01-07T08:35:44.357Z,99995.78
2023-01-07T08:36:45.963Z,99973.91
2023-01-07T08:37:48.990Z,100002.78
2023-01-07T08:38:56.030Z,100006.41
2023-01-07T08:39:57.806Z,99989.44
2023-01-07T08:41:00.217Z,99979.88
2023-01-07T08:42:02.051Z,99984.84
2023-01-07T08:43:06.114Z,100001.19
2023-01-07T08:44:07.909Z,100000.34
2023-01-07T08:45:12.241Z,99996.94
2023-01-07T08:46:14.608Z,99991.16
2023-01-07T08:47:16.599Z,99997.97
2023-01-07T08:48:20.485Z,100009.19
2023-01-07T08:49:22.992Z,99986.81
2023-01-07T08:50:26.830Z,100001.28
2023-01-07T08:51:28.438Z,99976.56
2023-01-07T08:52:30.703Z,99972.19
2023-01-07T08:53:33.239Z,100010.81
2023-01-07T08:54:35.023Z,99977.31
2023-01-07T08:55:36.908Z,99994.41
2023-01-07T08:56:38.519Z,99983.34
2023-01-07T08:57:40.147Z,100001.03
2023-01-07T08:58:41.840Z,100005.47
2023-01-07T08:59:43.928Z,100008.84
2023-01-07T09:00:47.612Z,99960.84
2023-01-07T09:01:49.729Z,99987.19
2023-01-07T09:02:51.944Z,99978.81
2023-01-07T09:03:55.088Z,99990.41
2023-01-07T09:04:56.978Z,99987.81
2023-01-07T09:05:59.249Z,99986.00
2023-01-07T09:07:00.881Z,99987.78
2023-01-07T09:08:03.794Z,99946.78
2023-01-07T09:09:06.187Z,99991.97
2023-01-07T09:10:08.597Z,99966.19
2023-01-07T09:11:10.393Z,99983.09
2023-01-07T09:12:15.125Z,99992.66
2023-01-07T09:13:17.348Z,99982.22
2023-01-07T09:14:19.306Z,99937.97
2023-01-07T09:15:21.014Z,99978.63
2023-01-07T09:16:24.057Z,99977.69
2023-01-07T09:17:28.355Z,99976.66
2023-01-07T09:18:30.224Z,99963.84
2023-01-07T09:19:32.628Z,99972.56
2023-01-07T09:20:34.352Z,99959.59
2023-01-07T09:21:35.952Z,99978.31
2023-01-07T09:22:38.262Z,99955.22
2023-01-07T09:23:40.509Z,99976.41
2023-01-07T09:24:42.162Z,99974.50
2023-01-07T09:25:44.388Z,99971.78
2023-01-07T09:26:46.250Z,99969.34
2023-01-07T09:27:51.891Z,99953.78
2023-01-07T09:28:53.588Z,99970.75
2023-01-07T09:29:58.480Z,99967.88
2023-01-07T09:31:00.929Z,99947.31
2023-01-07T09:32:02.880Z,99970.91
2023-01-07T09:33:05.545Z,99953.66
2023-01-07T09:34:07.515Z,99963.72
2023-01-07T09:35:11.617Z,99967.22
2023-01-07T09:36:13.608Z,99974.88
2023-01-07T09:37:17.217Z,99973.38
2023-01-07T09:38:18.966Z,99959.84
2023-01-07T09:39:20.555Z,99961.94
2023-01-07T09:40:29.528Z,99959.28
2023-01-07T09:41:47.206Z,99970.59
2023-01-07T09:43:13.257Z,99949.66
2023-01-07T09:44:32.564Z,99965.69
2023-01-07T09:45:45.341Z,99964.91
2023-01-07T09:46:51.693Z,99965.69
2023-01-07T09:47:57.478Z,99959.25
2023-01-07T09:49:03.855Z,99932.69
2023-01-07T09:50:34.352Z,99958.47
2023-01-07T09:51:44.121Z,99936.13
2023-01-07T09:52:50.413Z,99963.34
2023-01-07T09:53:57.159Z,99951.97
2023-01-07T09:55:06.813Z,99955.13
2023-01-07T09:56:28.732Z,99952.69
2023-01-07T09:57:30.471Z,99933.38
2023-01-07T09:58:32.655Z,99941.50
2023-01-07T09:59:34.333Z,99930.16
2023-01-07T10:00:43.823Z,99913.16
2023-01-07T10:01:53.581Z,99953.56
2023-01-07T10:03:22.677Z,99951.72
2023-01-07T10:05:02.432Z,99950.53
2023-01-07T10:06:42.666Z,99949.16
2023-01-07T10:08:31.189Z,99946.53
2023-01-07T10:09:45.285Z,99943.91
2023-01-07T10:10:53.601Z,99942.66
2023-01-07T10:12:01.440Z,99942.44
2023-01-07T10:13:37.136Z,99938.34
2023-01-07T10:14:38.896Z,99942.00
2023-01-07T10:15:54.471Z,99937.94
2023-01-07T10:17:36.588Z,99937.84
2023-01-07T10:18:47.359Z,99936.97
2023-01-07T10:20:04.197Z,99934.13
2023-01-07T10:21:24.927Z,99924.28
2023-01-07T10:22:52.413Z,99927.91
2023-01-07T10:24:04.466Z,99921.38
2023-01-07T10:25:19.884Z,99916.22
2023-01-07T10:26:39.327Z,99920.13
2023-01-07T10:27:44.340Z,99917.44
2023-01-07T10:28:59.181Z,99911.94
2023-01-07T10:30:04.404Z,99921.69
2023-01-07T10:31:16.489Z,99861.31
2023-01-07T10:32:21.671Z,99908.06
2023-01-07T10:33:27.064Z,99898.41
2023-01-07T10:34:38.567Z,99911.06
2023-01-07T10:35:41.314Z,99905.41
2023-01-07T10:36:57.931Z,99854.53
2023-01-07T10:38:02.195Z,99894.34
2023-01-07T10:39:24.905Z,99885.19
2023-01-07T10:40:44.542Z,99872.06
2023-01-07T10:42:03.885Z,99864.06
2023-01-07T10:43:30.761Z,99873.56
2023-01-07T10:45:20.684Z,99857.84
2023-01-07T10:46:42.448Z,99858.53
2023-01-07T10:48:07.086Z,99853.66
2023-01-07T10:49:21.739Z,99850.09
2023-01-07T10:50:31.446Z,99829.97
2023-01-07T10:52:07.038Z,99842.31
2023-01-07T10:53:27.959Z,99841.81
2023-01-07T10:55:11.328Z,99831.94
2023-01-07T10:56:30.927Z,99842.22
2023-01-07T10:57:34.102Z,99830.28
2023-01-07T10:58:46.131Z,99834.19
2023-01-07T10:59:50.096Z,99831.13
2023-01-07T11:00:52.313Z,99844.47
2023-01-07T11:01:58.362Z,99821.38
2023-01-07T11:03:00.848Z,99813.28
2023-01-07T11:04:03.459Z,99820.88
2023-01-07T11:05:08.390Z,99817.53
2023-01-07T11:06:15.754Z,99799.22
2023-01-07T11:07:44.402Z,99816.06
2023-01-07T11:08:47.226Z,99799.50
2023-01-07T11:09:49.763Z,99797.13
2023-01-07T11:10:51.679Z,99814.91
2023-01-07T11:11:55.415Z,99801.25
2023-01-07T11:13:19.257Z,99786.81
2023-01-07T11:14:27.934Z,99803.72
2023-01-07T11:15:31.599Z,99803.88
2023-01-07T11:16:43.633Z,99799.44
2023-01-07T11:17:56.325Z,99790.13
2023-01-07T11:19:09.418Z,99793.53
2023-01-07T11:20:12.669Z,99774.72
2023-01-07T11:21:44.664Z,99779.88
2023-01-07T11:22:46.698Z,99787.66
2023-01-07T11:23:50.045Z,99750.56
2023-01-07T11:24:52.811Z,99787.00
2023-01-07T11:25:55.977Z,99788.22
2023-01-07T11:27:05.025Z,99769.63
2023-01-07T11:28:19.213Z,99773.25
2023-01-07T11:29:25.542Z,99775.22
2023-01-07T11:30:31.258Z,99767.25
2023-01-07T11:32:00.138Z,99762.41
2023-01-07T11:33:06.253Z,99753.44
2023-01-07T11:34:24.167Z,99755.59
2023-01-07T11:35:30.083Z,99755.47
2023-01-07T11:36:42.931Z,99763.88
2023-01-07T11:37:47.084Z,99751.22
2023-01-07T11:38:48.771Z,99747.25
2023-01-07T11:39:59.422Z,99759.78
2023-01-07T11:41:01.319Z,99737.28
2023-01-07T11:42:36.961Z,99745.84
2023-01-07T11:43:40.824Z,99734.31
2023-01-07T11:44:42.707Z,99734.97
2023-01-07T11:46:19.418Z,99731.25
2023-01-07T11:47:23.444Z,99721.66
2023-01-07T11:48:31.971Z,99728.19
2023-01-07T11:49:44.237Z,99731.28
2023-01-07T11:51:01.318Z,99725.06
2023-01-07T11:52:03.447Z,99721.91
2023-01-07T11:53:12.699Z,99721.47
2023-01-07T11:54:28.446Z,99723.19
2023-01-07T11:55:30.627Z,99718.03
2023-01-07T11:56:34.208Z,99707.22
2023-01-07T11:57:36.519Z,99678.50
2023-01-07T11:58:49.294Z,99697.63
2023-01-07T12:00:15.606Z,99699.19
2023-01-07T12:01:24.725Z,99693.00
2023-01-07T12:02:27.759Z,99701.28
2023-01-07T12:03:29.530Z,99677.59
2023-01-07T12:04:36.338Z,99700.38
2023-01-07T12:05:40.524Z,99696.91
2023-01-07T12:06:45.624Z,99694.03
2023-01-07T12:07:50.491Z,99691.94
2023-01-07T12:09:20.629Z,99683.81
2023-01-07T12:10:33.310Z,99682.78
2023-01-07T12:11:40.179Z,99674.34
2023-01-07T12:12:44.784Z,99668.66
2023-01-07T12:13:53.354Z,99681.69
2023-01-07T12:14:56.303Z,99667.81
2023-01-07T12:16:02.769Z,99652.13
2023-01-07T12:17:23.674Z,99673.25
2023-01-07T12:18:26.144Z,99668.63
2023-01-07T12:20:04.393Z,99669.59
2023-01-07T12:21:32.631Z,99658.94
2023-01-07T12:22:52.582Z,99655.31
2023-01-07T12:24:03.347Z,99656.59
2023-01-07T12:25:05.254Z,99655.16
2023-01-07T12:26:22.580Z,99649.59
2023-01-07T12:27:53.249Z,99658.00
2023-01-07T12:29:36.795Z,99647.53
2023-01-07T12:31:07.699Z,99654.50
2023-01-07T12:32:27.985Z,99649.06
2023-01-07T12:34:08.647Z,99651.69
2023-01-07T12:35:20.484Z,99634.53
2023-01-07T12:36:52.697Z,99648.56
2023-01-07T12:38:06.527Z,99640.06
2023-01-07T12:39:16.058Z,99635.47
2023-01-07T12:40:28.749Z,99636.56
2023-01-07T12:41:39.527Z,99635.47
2023-01-07T12:42:50.540Z,99633.63
2023-01-07T12:43:59.185Z,99631.28
2023-01-07T12:45:06.473Z,99629.59
2023-01-07T12:46:15.382Z,99626.56